sensor_id;sensor_type;location;lat;lon;timestamp;P1;durP1;ratioP1;P2;durP2;ratioP2
65665;SDS011;52365;47.464;18.976;2023-12-20T00:00:06;144.30;;;24.87;;
65665;SDS011;52365;47.464;18.976;2023-12-20T00:00:27;127.25;;;24.98;;
65665;SDS011;52365;47.464;18.976;2023-12-20T00:00:48;115.82;;;25.17;;
65665;SDS011;52365;47.464;18.976;2023-12-20T00:01:09;122.62;;;24.73;;
65665;SDS011;52365;47.464;18.976;2023-12-20T00:01:30;113.55;;;24.37;;
65665;SDS011;52365;47.464;18.976;2023-12-20T00:01:51;129.32;;;25.35;;
65665;SDS011;52365;47.464;18.976;2023-12-20T00:02:12;148.18;;;26.90;;
65665;SDS011;52365;47.464;18.976;2023-12-20T00:02:33;123.38;;;25.45;;
65665;SDS011;52365;47.464;18.976;2023-12-20T00:02:54;103.38;;;23.23;;
65665;SDS011;52365;47.464;18.976;2023-12-20T00:03:15;134.30;;;25.58;;
65665;SDS011;52365;47.464;18.976;2023-12-20T00:03:36;121.22;;;24.60;;
65665;SDS011;52365;47.464;18.976;2023-12-20T00:03:52;135.27;;;25.17;;
65665;SDS011;52365;47.464;18.976;2023-12-20T00:04:13;155.00;;;26.70;;
65665;SDS011;52365;47.464;18.976;2023-12-20T00:04:34;132.12;;;25.20;;
65665;SDS011;52365;47.464;18.976;2023-12-20T00:04:55;118.30;;;24.67;;
65665;SDS011;52365;47.464;18.976;2023-12-20T00:05:10;145.62;;;25.20;;
65665;SDS011;52365;47.464;18.976;2023-12-20T00:05:32;150.93;;;25.85;;
65665;SDS011;52365;47.464;18.976;2023-12-20T00:05:55;123.68;;;25.67;;
65665;SDS011;52365;47.464;18.976;2023-12-20T00:06:16;113.57;;;25.20;;
65665;SDS011;52365;47.464;18.976;2023-12-20T00:06:37;117.57;;;24.10;;
65665;SDS011;52365;47.464;18.976;2023-12-20T00:06:58;110.88;;;24.23;;
65665;SDS011;52365;47.464;18.976;2023-12-20T00:07:14;160.10;;;25.90;;
65665;SDS011;52365;47.464;18.976;2023-12-20T00:07:30;185.70;;;25.25;;
65665;SDS011;52365;47.464;18.976;2023-12-20T00:07:51;175.68;;;23.95;;
65665;SDS011;52365;47.464;18.976;2023-12-20T00:08:12;159.23;;;23.48;;
65665;SDS011;52365;47.464;18.976;2023-12-20T00:08:32;157.55;;;25.27;;
65665;SDS011;52365;47.464;18.976;2023-12-20T00:08:53;120.28;;;25.27;;
65665;SDS011;52365;47.464;18.976;2023-12-20T00:09:14;124.95;;;22.62;;
65665;SDS011;52365;47.464;18.976;2023-12-20T00:09:35;117.45;;;22.90;;
65665;SDS011;52365;47.464;18.976;2023-12-20T00:09:56;98.45;;;22.83;;
65665;SDS011;52365;47.464;18.976;2023-12-20T00:10:12;147.27;;;24.77;;
65665;SDS011;52365;47.464;18.976;2023-12-20T00:10:33;117.43;;;24.00;;
65665;SDS011;52365;47.464;18.976;2023-12-20T00:10:54;94.78;;;22.87;;
65665;SDS011;52365;47.464;18.976;2023-12-20T00:11:15;113.88;;;23.60;;
65665;SDS011;52365;47.464;18.976;2023-12-20T00:11:36;123.65;;;24.23;;
65665;SDS011;52365;47.464;18.976;2023-12-20T00:11:57;123.60;;;23.80;;
65665;SDS011;52365;47.464;18.976;2023-12-20T00:12:13;107.87;;;23.40;;
65665;SDS011;52365;47.464;18.976;2023-12-20T00:12:34;104.53;;;24.23;;
65665;SDS011;52365;47.464;18.976;2023-12-20T00:12:55;116.72;;;24.45;;
65665;SDS011;52365;47.464;18.976;2023-12-20T00:13:16;105.47;;;23.83;;
65665;SDS011;52365;47.464;18.976;2023-12-20T00:13:31;123.30;;;24.20;;
65665;SDS011;52365;47.464;18.976;2023-12-20T00:13:52;117.30;;;23.83;;
65665;SDS011;52365;47.464;18.976;2023-12-20T00:14:13;92.12;;;23.33;;
65665;SDS011;52365;47.464;18.976;2023-12-20T00:14:29;80.62;;;22.75;;
65665;SDS011;52365;47.464;18.976;2023-12-20T00:14:50;113.78;;;24.58;;
65665;SDS011;52365;47.464;18.976;2023-12-20T00:15:07;106.18;;;24.40;;
65665;SDS011;52365;47.464;18.976;2023-12-20T00:15:28;76.20;;;23.58;;
65665;SDS011;52365;47.464;18.976;2023-12-20T00:15:49;98.25;;;23.77;;
65665;SDS011;52365;47.464;18.976;2023-12-20T00:16:10;107.45;;;23.67;;
65665;SDS011;52365;47.464;18.976;2023-12-20T00:16:31;144.50;;;25.40;;
65665;SDS011;52365;47.464;18.976;2023-12-20T00:16:47;144.82;;;25.58;;
65665;SDS011;52365;47.464;18.976;2023-12-20T00:17:08;114.82;;;24.00;;
65665;SDS011;52365;47.464;18.976;2023-12-20T00:17:29;84.95;;;22.48;;
65665;SDS011;52365;47.464;18.976;2023-12-20T00:17:50;69.03;;;22.58;;
65665;SDS011;52365;47.464;18.976;2023-12-20T00:18:06;71.20;;;23.10;;
65665;SDS011;52365;47.464;18.976;2023-12-20T00:18:27;81.95;;;23.25;;
65665;SDS011;52365;47.464;18.976;2023-12-20T00:18:43;85.32;;;23.00;;
65665;SDS011;52365;47.464;18.976;2023-12-20T00:19:04;81.65;;;23.20;;
65665;SDS011;52365;47.464;18.976;2023-12-20T00:19:25;84.05;;;24.33;;
65665;SDS011;52365;47.464;18.976;2023-12-20T00:19:46;89.28;;;24.20;;
65665;SDS011;52365;47.464;18.976;2023-12-20T00:20:07;90.90;;;23.85;;
65665;SDS011;52365;47.464;18.976;2023-12-20T00:20:28;114.82;;;25.33;;
65665;SDS011;52365;47.464;18.976;2023-12-20T00:20:50;100.87;;;23.62;;
65665;SDS011;52365;47.464;18.976;2023-12-20T00:21:11;144.27;;;26.08;;
65665;SDS011;52365;47.464;18.976;2023-12-20T00:21:32;167.48;;;26.37;;
65665;SDS011;52365;47.464;18.976;2023-12-20T00:21:53;149.25;;;25.58;;
65665;SDS011;52365;47.464;18.976;2023-12-20T00:22:14;172.13;;;25.33;;
65665;SDS011;52365;47.464;18.976;2023-12-20T00:22:35;191.65;;;25.62;;
65665;SDS011;52365;47.464;18.976;2023-12-20T00:22:56;170.15;;;24.85;;
65665;SDS011;52365;47.464;18.976;2023-12-20T00:23:18;108.12;;;22.73;;
65665;SDS011;52365;47.464;18.976;2023-12-20T00:23:39;115.37;;;21.90;;
65665;SDS011;52365;47.464;18.976;2023-12-20T00:23:55;120.50;;;23.52;;
65665;SDS011;52365;47.464;18.976;2023-12-20T00:24:16;135.80;;;24.67;;
65665;SDS011;52365;47.464;18.976;2023-12-20T00:24:37;149.85;;;24.52;;
65665;SDS011;52365;47.464;18.976;2023-12-20T00:24:58;132.63;;;24.25;;
65665;SDS011;52365;47.464;18.976;2023-12-20T00:25:19;91.80;;;22.30;;
65665;SDS011;52365;47.464;18.976;2023-12-20T00:25:39;123.45;;;22.15;;
65665;SDS011;52365;47.464;18.976;2023-12-20T00:26:01;138.02;;;22.25;;
65665;SDS011;52365;47.464;18.976;2023-12-20T00:26:21;98.43;;;22.60;;
65665;SDS011;52365;47.464;18.976;2023-12-20T00:26:42;86.82;;;22.70;;
65665;SDS011;52365;47.464;18.976;2023-12-20T00:26:58;105.10;;;22.73;;
65665;SDS011;52365;47.464;18.976;2023-12-20T00:27:19;106.55;;;22.50;;
65665;SDS011;52365;47.464;18.976;2023-12-20T00:27:40;102.05;;;22.70;;
65665;SDS011;52365;47.464;18.976;2023-12-20T00:28:01;96.90;;;23.92;;
65665;SDS011;52365;47.464;18.976;2023-12-20T00:28:23;94.57;;;22.20;;
65665;SDS011;52365;47.464;18.976;2023-12-20T00:28:44;84.85;;;21.23;;
65665;SDS011;52365;47.464;18.976;2023-12-20T00:29:05;76.22;;;21.33;;
65665;SDS011;52365;47.464;18.976;2023-12-20T00:29:26;94.43;;;22.37;;
65665;SDS011;52365;47.464;18.976;2023-12-20T00:29:42;99.00;;;22.45;;
65665;SDS011;52365;47.464;18.976;2023-12-20T00:30:05;91.95;;;22.48;;
65665;SDS011;52365;47.464;18.976;2023-12-20T00:30:26;93.07;;;21.67;;
65665;SDS011;52365;47.464;18.976;2023-12-20T00:30:47;101.95;;;22.95;;
65665;SDS011;52365;47.464;18.976;2023-12-20T00:31:08;99.45;;;22.35;;
65665;SDS011;52365;47.464;18.976;2023-12-20T00:31:29;105.57;;;22.17;;
65665;SDS011;52365;47.464;18.976;2023-12-20T00:31:50;80.68;;;21.87;;
65665;SDS011;52365;47.464;18.976;2023-12-20T00:32:11;80.43;;;22.58;;
65665;SDS011;52365;47.464;18.976;2023-12-20T00:32:27;76.05;;;23.05;;
65665;SDS011;52365;47.464;18.976;2023-12-20T00:32:43;79.32;;;21.40;;
65665;SDS011;52365;47.464;18.976;2023-12-20T00:33:06;88.57;;;24.10;;
65665;SDS011;52365;47.464;18.976;2023-12-20T00:33:27;95.22;;;23.90;;
65665;SDS011;52365;47.464;18.976;2023-12-20T00:33:43;104.12;;;23.50;;
65665;SDS011;52365;47.464;18.976;2023-12-20T00:34:04;90.75;;;23.52;;
65665;SDS011;52365;47.464;18.976;2023-12-20T00:34:25;90.90;;;22.95;;
65665;SDS011;52365;47.464;18.976;2023-12-20T00:34:46;91.15;;;22.83;;
65665;SDS011;52365;47.464;18.976;2023-12-20T00:35:07;96.90;;;23.05;;
65665;SDS011;52365;47.464;18.976;2023-12-20T00:35:23;96.05;;;23.55;;
65665;SDS011;52365;47.464;18.976;2023-12-20T00:35:39;103.95;;;23.92;;
65665;SDS011;52365;47.464;18.976;2023-12-20T00:35:55;110.82;;;24.20;;
65665;SDS011;52365;47.464;18.976;2023-12-20T00:36:16;97.22;;;22.75;;
65665;SDS011;52365;47.464;18.976;2023-12-20T00:36:37;95.47;;;22.62;;
65665;SDS011;52365;47.464;18.976;2023-12-20T00:36:58;102.62;;;23.80;;
65665;SDS011;52365;47.464;18.976;2023-12-20T00:37:19;112.30;;;23.77;;
65665;SDS011;52365;47.464;18.976;2023-12-20T00:37:40;104.43;;;23.98;;
65665;SDS011;52365;47.464;18.976;2023-12-20T00:38:01;120.50;;;23.85;;
65665;SDS011;52365;47.464;18.976;2023-12-20T00:38:22;110.25;;;23.67;;
65665;SDS011;52365;47.464;18.976;2023-12-20T00:38:38;103.28;;;23.75;;
65665;SDS011;52365;47.464;18.976;2023-12-20T00:38:54;100.82;;;23.87;;
65665;SDS011;52365;47.464;18.976;2023-12-20T00:39:11;102.80;;;23.87;;
65665;SDS011;52365;47.464;18.976;2023-12-20T00:39:31;110.85;;;24.23;;
65665;SDS011;52365;47.464;18.976;2023-12-20T00:39:48;107.97;;;24.92;;
65665;SDS011;52365;47.464;18.976;2023-12-20T00:40:04;102.20;;;24.98;;
65665;SDS011;52365;47.464;18.976;2023-12-20T00:40:26;105.43;;;25.33;;
65665;SDS011;52365;47.464;18.976;2023-12-20T00:40:47;98.43;;;24.65;;
65665;SDS011;52365;47.464;18.976;2023-12-20T00:41:08;88.45;;;24.17;;
65665;SDS011;52365;47.464;18.976;2023-12-20T00:41:24;102.57;;;24.98;;
65665;SDS011;52365;47.464;18.976;2023-12-20T00:41:45;106.85;;;25.12;;
65665;SDS011;52365;47.464;18.976;2023-12-20T00:42:06;107.28;;;25.23;;
65665;SDS011;52365;47.464;18.976;2023-12-20T00:42:27;110.00;;;26.00;;
65665;SDS011;52365;47.464;18.976;2023-12-20T00:42:42;103.65;;;25.85;;
65665;SDS011;52365;47.464;18.976;2023-12-20T00:43:03;95.78;;;25.55;;
65665;SDS011;52365;47.464;18.976;2023-12-20T00:43:19;91.10;;;24.60;;
65665;SDS011;52365;47.464;18.976;2023-12-20T00:43:40;92.32;;;24.27;;
65665;SDS011;52365;47.464;18.976;2023-12-20T00:44:01;91.00;;;23.55;;
65665;SDS011;52365;47.464;18.976;2023-12-20T00:44:17;102.38;;;23.75;;
65665;SDS011;52365;47.464;18.976;2023-12-20T00:44:33;112.75;;;24.60;;
65665;SDS011;52365;47.464;18.976;2023-12-20T00:44:54;97.35;;;24.67;;
65665;SDS011;52365;47.464;18.976;2023-12-20T00:45:15;84.40;;;24.08;;
65665;SDS011;52365;47.464;18.976;2023-12-20T00:45:36;106.87;;;25.90;;
65665;SDS011;52365;47.464;18.976;2023-12-20T00:45:57;101.28;;;26.55;;
65665;SDS011;52365;47.464;18.976;2023-12-20T00:46:20;103.35;;;25.08;;
65665;SDS011;52365;47.464;18.976;2023-12-20T00:46:41;100.35;;;25.15;;
65665;SDS011;52365;47.464;18.976;2023-12-20T00:47:02;107.60;;;25.40;;
65665;SDS011;52365;47.464;18.976;2023-12-20T00:47:23;90.85;;;22.90;;
65665;SDS011;52365;47.464;18.976;2023-12-20T00:47:45;92.12;;;25.40;;
65665;SDS011;52365;47.464;18.976;2023-12-20T00:48:01;93.75;;;25.90;;
65665;SDS011;52365;47.464;18.976;2023-12-20T00:48:22;102.03;;;24.27;;
65665;SDS011;52365;47.464;18.976;2023-12-20T00:48:42;90.93;;;24.85;;
65665;SDS011;52365;47.464;18.976;2023-12-20T00:49:06;83.07;;;23.40;;
65665;SDS011;52365;47.464;18.976;2023-12-20T00:49:27;98.65;;;24.58;;
65665;SDS011;52365;47.464;18.976;2023-12-20T00:49:42;99.82;;;25.00;;
65665;SDS011;52365;47.464;18.976;2023-12-20T00:50:04;105.55;;;24.90;;
65665;SDS011;52365;47.464;18.976;2023-12-20T00:50:25;93.28;;;24.98;;
65665;SDS011;52365;47.464;18.976;2023-12-20T00:50:46;91.07;;;25.30;;
65665;SDS011;52365;47.464;18.976;2023-12-20T00:51:07;89.47;;;25.02;;
65665;SDS011;52365;47.464;18.976;2023-12-20T00:51:23;96.30;;;25.10;;
65665;SDS011;52365;47.464;18.976;2023-12-20T00:51:44;97.40;;;24.83;;
65665;SDS011;52365;47.464;18.976;2023-12-20T00:52:00;90.53;;;24.33;;
65665;SDS011;52365;47.464;18.976;2023-12-20T00:52:16;87.22;;;24.67;;
65665;SDS011;52365;47.464;18.976;2023-12-20T00:52:38;89.15;;;24.87;;
65665;SDS011;52365;47.464;18.976;2023-12-20T00:52:58;95.87;;;25.10;;
65665;SDS011;52365;47.464;18.976;2023-12-20T00:53:19;92.18;;;24.20;;
65665;SDS011;52365;47.464;18.976;2023-12-20T00:53:40;103.28;;;24.63;;
65665;SDS011;52365;47.464;18.976;2023-12-20T00:53:56;84.45;;;23.60;;
65665;SDS011;52365;47.464;18.976;2023-12-20T00:54:17;114.10;;;25.73;;
65665;SDS011;52365;47.464;18.976;2023-12-20T00:54:38;107.30;;;25.92;;
65665;SDS011;52365;47.464;18.976;2023-12-20T00:54:59;80.12;;;23.85;;
65665;SDS011;52365;47.464;18.976;2023-12-20T00:55:20;85.20;;;24.67;;
65665;SDS011;52365;47.464;18.976;2023-12-20T00:55:41;113.25;;;25.05;;
65665;SDS011;52365;47.464;18.976;2023-12-20T00:55:57;119.10;;;25.80;;
65665;SDS011;52365;47.464;18.976;2023-12-20T00:56:19;100.90;;;24.23;;
65665;SDS011;52365;47.464;18.976;2023-12-20T00:56:35;94.95;;;23.23;;
65665;SDS011;52365;47.464;18.976;2023-12-20T00:56:51;89.95;;;24.25;;
65665;SDS011;52365;47.464;18.976;2023-12-20T00:57:07;78.00;;;24.67;;
65665;SDS011;52365;47.464;18.976;2023-12-20T00:57:28;85.57;;;24.00;;
65665;SDS011;52365;47.464;18.976;2023-12-20T00:57:49;93.70;;;23.48;;
65665;SDS011;52365;47.464;18.976;2023-12-20T00:58:10;89.20;;;23.10;;
65665;SDS011;52365;47.464;18.976;2023-12-20T00:58:31;101.93;;;24.40;;
65665;SDS011;52365;47.464;18.976;2023-12-20T00:58:47;114.97;;;25.20;;
65665;SDS011;52365;47.464;18.976;2023-12-20T00:59:03;115.47;;;25.27;;
65665;SDS011;52365;47.464;18.976;2023-12-20T00:59:19;114.45;;;25.05;;
65665;SDS011;52365;47.464;18.976;2023-12-20T00:59:34;115.55;;;25.42;;
65665;SDS011;52365;47.464;18.976;2023-12-20T00:59:55;137.18;;;26.45;;
65665;SDS011;52365;47.464;18.976;2023-12-20T01:00:11;113.60;;;24.65;;
65665;SDS011;52365;47.464;18.976;2023-12-20T01:00:33;80.60;;;23.20;;
65665;SDS011;52365;47.464;18.976;2023-12-20T01:00:49;79.78;;;23.70;;
65665;SDS011;52365;47.464;18.976;2023-12-20T01:01:05;81.22;;;23.67;;
65665;SDS011;52365;47.464;18.976;2023-12-20T01:01:26;86.55;;;24.30;;
65665;SDS011;52365;47.464;18.976;2023-12-20T01:01:47;87.82;;;23.42;;
65665;SDS011;52365;47.464;18.976;2023-12-20T01:02:08;107.85;;;24.52;;
65665;SDS011;52365;47.464;18.976;2023-12-20T01:02:25;103.65;;;24.65;;
65665;SDS011;52365;47.464;18.976;2023-12-20T01:02:46;102.38;;;24.63;;
65665;SDS011;52365;47.464;18.976;2023-12-20T01:03:09;87.95;;;22.77;;
65665;SDS011;52365;47.464;18.976;2023-12-20T01:03:25;107.05;;;23.62;;
65665;SDS011;52365;47.464;18.976;2023-12-20T01:03:46;104.10;;;24.12;;
65665;SDS011;52365;47.464;18.976;2023-12-20T01:04:07;88.62;;;23.50;;
65665;SDS011;52365;47.464;18.976;2023-12-20T01:04:23;84.45;;;24.48;;
65665;SDS011;52365;47.464;18.976;2023-12-20T01:04:39;94.10;;;25.65;;
65665;SDS011;52365;47.464;18.976;2023-12-20T01:05:00;93.60;;;24.20;;
65665;SDS011;52365;47.464;18.976;2023-12-20T01:05:21;99.37;;;24.40;;
65665;SDS011;52365;47.464;18.976;2023-12-20T01:05:43;102.50;;;23.85;;
65665;SDS011;52365;47.464;18.976;2023-12-20T01:06:04;101.78;;;24.48;;
65665;SDS011;52365;47.464;18.976;2023-12-20T01:06:25;86.00;;;24.05;;
65665;SDS011;52365;47.464;18.976;2023-12-20T01:06:46;104.22;;;24.27;;
65665;SDS011;52365;47.464;18.976;2023-12-20T01:07:07;113.68;;;24.35;;
65665;SDS011;52365;47.464;18.976;2023-12-20T01:07:28;96.82;;;23.48;;
65665;SDS011;52365;47.464;18.976;2023-12-20T01:07:49;132.02;;;25.40;;
65665;SDS011;52365;47.464;18.976;2023-12-20T01:08:10;109.70;;;24.87;;
65665;SDS011;52365;47.464;18.976;2023-12-20T01:08:26;84.03;;;22.80;;
65665;SDS011;52365;47.464;18.976;2023-12-20T01:08:42;104.87;;;23.12;;
65665;SDS011;52365;47.464;18.976;2023-12-20T01:09:03;114.45;;;24.30;;
65665;SDS011;52365;47.464;18.976;2023-12-20T01:09:24;104.12;;;24.40;;
65665;SDS011;52365;47.464;18.976;2023-12-20T01:09:47;90.78;;;23.38;;
65665;SDS011;52365;47.464;18.976;2023-12-20T01:10:08;97.45;;;23.05;;
65665;SDS011;52365;47.464;18.976;2023-12-20T01:10:29;101.45;;;24.05;;
65665;SDS011;52365;47.464;18.976;2023-12-20T01:10:45;108.37;;;24.77;;
65665;SDS011;52365;47.464;18.976;2023-12-20T01:11:07;98.10;;;24.87;;
65665;SDS011;52365;47.464;18.976;2023-12-20T01:11:28;101.25;;;24.52;;
65665;SDS011;52365;47.464;18.976;2023-12-20T01:11:49;104.00;;;23.30;;
65665;SDS011;52365;47.464;18.976;2023-12-20T01:12:10;102.70;;;23.73;;
65665;SDS011;52365;47.464;18.976;2023-12-20T01:12:31;107.53;;;24.15;;
65665;SDS011;52365;47.464;18.976;2023-12-20T01:12:52;89.95;;;24.20;;
65665;SDS011;52365;47.464;18.976;2023-12-20T01:13:12;97.45;;;23.80;;
65665;SDS011;52365;47.464;18.976;2023-12-20T01:13:33;104.07;;;22.62;;
65665;SDS011;52365;47.464;18.976;2023-12-20T01:13:54;124.25;;;25.08;;
65665;SDS011;52365;47.464;18.976;2023-12-20T01:14:15;96.32;;;23.62;;
65665;SDS011;52365;47.464;18.976;2023-12-20T01:14:36;102.43;;;24.17;;
65665;SDS011;52365;47.464;18.976;2023-12-20T01:14:57;112.88;;;24.00;;
65665;SDS011;52365;47.464;18.976;2023-12-20T01:15:19;96.82;;;23.75;;
65665;SDS011;52365;47.464;18.976;2023-12-20T01:15:40;100.47;;;23.80;;
65665;SDS011;52365;47.464;18.976;2023-12-20T01:15:57;91.32;;;23.92;;
65665;SDS011;52365;47.464;18.976;2023-12-20T01:16:18;92.47;;;24.08;;
65665;SDS011;52365;47.464;18.976;2023-12-20T01:16:39;111.20;;;24.60;;
65665;SDS011;52365;47.464;18.976;2023-12-20T01:16:59;139.52;;;24.25;;
65665;SDS011;52365;47.464;18.976;2023-12-20T01:17:20;124.30;;;25.35;;
65665;SDS011;52365;47.464;18.976;2023-12-20T01:17:41;96.63;;;23.25;;
65665;SDS011;52365;47.464;18.976;2023-12-20T01:18:02;101.70;;;23.35;;
65665;SDS011;52365;47.464;18.976;2023-12-20T01:18:23;111.12;;;24.70;;
65665;SDS011;52365;47.464;18.976;2023-12-20T01:18:44;102.22;;;24.75;;
65665;SDS011;52365;47.464;18.976;2023-12-20T01:19:05;112.62;;;25.55;;
65665;SDS011;52365;47.464;18.976;2023-12-20T01:19:27;107.65;;;23.90;;
65665;SDS011;52365;47.464;18.976;2023-12-20T01:19:49;103.80;;;24.17;;
65665;SDS011;52365;47.464;18.976;2023-12-20T01:20:10;100.47;;;25.73;;
65665;SDS011;52365;47.464;18.976;2023-12-20T01:20:31;116.55;;;25.10;;
65665;SDS011;52365;47.464;18.976;2023-12-20T01:20:51;109.75;;;23.87;;
65665;SDS011;52365;47.464;18.976;2023-12-20T01:21:12;97.60;;;23.42;;
65665;SDS011;52365;47.464;18.976;2023-12-20T01:21:28;105.68;;;23.48;;
65665;SDS011;52365;47.464;18.976;2023-12-20T01:21:49;104.32;;;24.55;;
65665;SDS011;52365;47.464;18.976;2023-12-20T01:22:05;105.90;;;24.30;;
65665;SDS011;52365;47.464;18.976;2023-12-20T01:22:26;101.03;;;25.33;;
65665;SDS011;52365;47.464;18.976;2023-12-20T01:22:47;103.25;;;26.20;;
65665;SDS011;52365;47.464;18.976;2023-12-20T01:23:03;101.85;;;25.05;;
65665;SDS011;52365;47.464;18.976;2023-12-20T01:23:24;90.43;;;24.60;;
65665;SDS011;52365;47.464;18.976;2023-12-20T01:23:45;93.82;;;24.02;;
65665;SDS011;52365;47.464;18.976;2023-12-20T01:24:06;94.62;;;23.87;;
65665;SDS011;52365;47.464;18.976;2023-12-20T01:24:22;100.28;;;24.40;;
65665;SDS011;52365;47.464;18.976;2023-12-20T01:24:43;95.25;;;24.63;;
65665;SDS011;52365;47.464;18.976;2023-12-20T01:25:04;98.60;;;25.08;;
65665;SDS011;52365;47.464;18.976;2023-12-20T01:25:25;87.65;;;24.30;;
65665;SDS011;52365;47.464;18.976;2023-12-20T01:25:46;91.40;;;24.65;;
65665;SDS011;52365;47.464;18.976;2023-12-20T01:26:07;97.07;;;25.55;;
65665;SDS011;52365;47.464;18.976;2023-12-20T01:26:28;79.37;;;23.67;;
65665;SDS011;52365;47.464;18.976;2023-12-20T01:26:48;87.50;;;24.10;;
65665;SDS011;52365;47.464;18.976;2023-12-20T01:27:09;85.15;;;24.27;;
65665;SDS011;52365;47.464;18.976;2023-12-20T01:27:30;91.63;;;23.62;;
65665;SDS011;52365;47.464;18.976;2023-12-20T01:27:51;99.97;;;24.73;;
65665;SDS011;52365;47.464;18.976;2023-12-20T01:28:08;87.47;;;24.73;;
65665;SDS011;52365;47.464;18.976;2023-12-20T01:28:29;90.85;;;24.42;;
65665;SDS011;52365;47.464;18.976;2023-12-20T01:28:50;93.18;;;24.95;;
65665;SDS011;52365;47.464;18.976;2023-12-20T01:29:11;95.65;;;25.42;;
65665;SDS011;52365;47.464;18.976;2023-12-20T01:29:27;109.25;;;26.45;;
65665;SDS011;52365;47.464;18.976;2023-12-20T01:29:48;107.50;;;25.58;;
65665;SDS011;52365;47.464;18.976;2023-12-20T01:30:04;92.28;;;24.63;;
65665;SDS011;52365;47.464;18.976;2023-12-20T01:30:26;84.97;;;23.98;;
65665;SDS011;52365;47.464;18.976;2023-12-20T01:30:47;87.03;;;25.02;;
65665;SDS011;52365;47.464;18.976;2023-12-20T01:31:08;99.62;;;26.02;;
65665;SDS011;52365;47.464;18.976;2023-12-20T01:31:29;97.05;;;26.65;;
65665;SDS011;52365;47.464;18.976;2023-12-20T01:31:50;107.97;;;26.45;;
65665;SDS011;52365;47.464;18.976;2023-12-20T01:32:11;111.70;;;26.70;;
65665;SDS011;52365;47.464;18.976;2023-12-20T01:32:32;96.93;;;26.35;;
65665;SDS011;52365;47.464;18.976;2023-12-20T01:32:53;96.00;;;26.23;;
65665;SDS011;52365;47.464;18.976;2023-12-20T01:33:10;97.20;;;25.50;;
65665;SDS011;52365;47.464;18.976;2023-12-20T01:33:31;99.53;;;25.08;;
65665;SDS011;52365;47.464;18.976;2023-12-20T01:33:52;92.25;;;25.40;;
65665;SDS011;52365;47.464;18.976;2023-12-20T01:34:13;99.95;;;25.35;;
65665;SDS011;52365;47.464;18.976;2023-12-20T01:34:34;98.07;;;25.30;;
65665;SDS011;52365;47.464;18.976;2023-12-20T01:34:55;109.20;;;25.58;;
65665;SDS011;52365;47.464;18.976;2023-12-20T01:35:16;97.50;;;25.45;;
65665;SDS011;52365;47.464;18.976;2023-12-20T01:35:37;101.72;;;26.15;;
65665;SDS011;52365;47.464;18.976;2023-12-20T01:35:58;101.47;;;26.12;;
65665;SDS011;52365;47.464;18.976;2023-12-20T01:36:18;107.32;;;26.40;;
65665;SDS011;52365;47.464;18.976;2023-12-20T01:36:40;109.50;;;26.95;;
65665;SDS011;52365;47.464;18.976;2023-12-20T01:37:01;97.30;;;26.48;;
65665;SDS011;52365;47.464;18.976;2023-12-20T01:37:23;99.22;;;27.05;;
65665;SDS011;52365;47.464;18.976;2023-12-20T01:37:45;100.80;;;26.42;;
65665;SDS011;52365;47.464;18.976;2023-12-20T01:38:06;100.82;;;26.37;;
65665;SDS011;52365;47.464;18.976;2023-12-20T01:38:27;99.30;;;26.48;;
65665;SDS011;52365;47.464;18.976;2023-12-20T01:38:43;106.45;;;26.92;;
65665;SDS011;52365;47.464;18.976;2023-12-20T01:39:04;93.65;;;26.45;;
65665;SDS011;52365;47.464;18.976;2023-12-20T01:39:25;85.55;;;25.33;;
65665;SDS011;52365;47.464;18.976;2023-12-20T01:39:46;92.97;;;25.73;;
65665;SDS011;52365;47.464;18.976;2023-12-20T01:40:07;98.40;;;27.08;;
65665;SDS011;52365;47.464;18.976;2023-12-20T01:40:28;101.97;;;27.52;;
65665;SDS011;52365;47.464;18.976;2023-12-20T01:40:49;105.78;;;27.17;;
65665;SDS011;52365;47.464;18.976;2023-12-20T01:41:05;101.38;;;26.62;;
65665;SDS011;52365;47.464;18.976;2023-12-20T01:41:26;100.43;;;26.48;;
65665;SDS011;52365;47.464;18.976;2023-12-20T01:41:47;110.53;;;27.92;;
65665;SDS011;52365;47.464;18.976;2023-12-20T01:42:03;101.53;;;27.25;;
65665;SDS011;52365;47.464;18.976;2023-12-20T01:42:24;99.03;;;27.52;;
65665;SDS011;52365;47.464;18.976;2023-12-20T01:42:45;99.50;;;26.50;;
65665;SDS011;52365;47.464;18.976;2023-12-20T01:43:02;100.55;;;25.50;;
65665;SDS011;52365;47.464;18.976;2023-12-20T01:43:29;90.55;;;25.85;;
65665;SDS011;52365;47.464;18.976;2023-12-20T01:43:45;90.97;;;26.60;;
65665;SDS011;52365;47.464;18.976;2023-12-20T01:44:05;104.20;;;27.05;;
65665;SDS011;52365;47.464;18.976;2023-12-20T01:44:26;106.97;;;26.50;;
65665;SDS011;52365;47.464;18.976;2023-12-20T01:44:47;118.62;;;26.92;;
65665;SDS011;52365;47.464;18.976;2023-12-20T01:45:08;107.37;;;27.25;;
65665;SDS011;52365;47.464;18.976;2023-12-20T01:45:29;93.25;;;27.67;;
65665;SDS011;52365;47.464;18.976;2023-12-20T01:45:50;89.05;;;27.20;;
65665;SDS011;52365;47.464;18.976;2023-12-20T01:46:12;91.35;;;27.02;;
65665;SDS011;52365;47.464;18.976;2023-12-20T01:46:33;89.90;;;26.50;;
65665;SDS011;52365;47.464;18.976;2023-12-20T01:46:55;97.05;;;26.12;;
65665;SDS011;52365;47.464;18.976;2023-12-20T01:47:16;99.20;;;26.62;;
65665;SDS011;52365;47.464;18.976;2023-12-20T01:47:37;100.15;;;26.25;;
65665;SDS011;52365;47.464;18.976;2023-12-20T01:47:54;100.53;;;26.20;;
65665;SDS011;52365;47.464;18.976;2023-12-20T01:48:16;100.70;;;27.70;;
65665;SDS011;52365;47.464;18.976;2023-12-20T01:48:37;99.25;;;27.25;;
65665;SDS011;52365;47.464;18.976;2023-12-20T01:48:59;92.30;;;26.25;;
65665;SDS011;52365;47.464;18.976;2023-12-20T01:49:20;81.90;;;24.55;;
65665;SDS011;52365;47.464;18.976;2023-12-20T01:49:42;86.63;;;24.63;;
65665;SDS011;52365;47.464;18.976;2023-12-20T01:49:59;90.18;;;24.42;;
65665;SDS011;52365;47.464;18.976;2023-12-20T01:50:20;93.00;;;26.45;;
65665;SDS011;52365;47.464;18.976;2023-12-20T01:50:42;108.68;;;27.30;;
65665;SDS011;52365;47.464;18.976;2023-12-20T01:51:05;91.00;;;26.08;;
65665;SDS011;52365;47.464;18.976;2023-12-20T01:51:26;98.97;;;26.55;;
65665;SDS011;52365;47.464;18.976;2023-12-20T01:51:48;102.07;;;26.35;;
65665;SDS011;52365;47.464;18.976;2023-12-20T01:52:10;92.72;;;25.95;;
65665;SDS011;52365;47.464;18.976;2023-12-20T01:52:31;89.80;;;25.77;;
65665;SDS011;52365;47.464;18.976;2023-12-20T01:52:49;79.28;;;24.83;;
65665;SDS011;52365;47.464;18.976;2023-12-20T01:53:07;89.72;;;25.55;;
65665;SDS011;52365;47.464;18.976;2023-12-20T01:53:31;87.32;;;27.37;;
65665;SDS011;52365;47.464;18.976;2023-12-20T01:53:48;89.60;;;27.67;;
65665;SDS011;52365;47.464;18.976;2023-12-20T01:54:10;103.43;;;28.15;;
65665;SDS011;52365;47.464;18.976;2023-12-20T01:54:26;102.95;;;26.33;;